createdAt,value
2018-12-04T00:04:27.009Z,4.41
2018-12-04T00:09:15.471Z,4.24
2018-12-04T00:14:05.814Z,4.34
2018-12-04T00:18:55.291Z,4.32
2018-12-04T00:23:42.768Z,4.46
2018-12-04T00:28:32.522Z,4.38
2018-12-04T00:33:17.572Z,4.41
2018-12-04T00:38:05.585Z,4.29
2018-12-04T00:42:53.890Z,4.35
2018-12-04T00:47:42.730Z,4.38
2018-12-04T00:52:26.969Z,4.30
2018-12-04T00:57:12.943Z,4.42
2018-12-04T01:02:04.152Z,4.39
2018-12-04T01:06:53.561Z,4.45
2018-12-04T01:11:43.788Z,4.53
2018-12-04T01:16:28.052Z,4.60
2018-12-04T01:21:18.605Z,4.67
2018-12-04T01:26:02.860Z,4.67
2018-12-04T01:30:51.660Z,4.70
2018-12-04T01:35:41.934Z,4.74
2018-12-04T01:40:29.678Z,4.68
2018-12-04T01:45:16.903Z,4.64
2018-12-04T01:50:07.878Z,4.58
2018-12-04T01:54:52.039Z,4.63
2018-12-04T01:59:42.241Z,4.59
2018-12-04T02:04:32.467Z,4.55
2018-12-04T02:09:22.395Z,4.52
2018-12-04T02:14:10.002Z,4.49
2018-12-04T02:19:00.985Z,4.48
2018-12-04T02:23:46.546Z,4.51
2018-12-04T02:28:41.435Z,4.48
2018-12-04T02:33:26.864Z,4.41
2018-12-04T02:38:14.922Z,4.40
2018-12-04T02:43:06.323Z,4.37
2018-12-04T02:47:51.388Z,4.40
2018-12-04T02:52:40.468Z,4.23
2018-12-04T02:57:30.434Z,4.24
2018-12-04T03:02:18.673Z,4.22
2018-12-04T03:07:08.711Z,4.19
2018-12-04T03:11:58.624Z,4.20
2018-12-04T03:16:48.038Z,4.20
2018-12-04T03:21:38.056Z,4.25
2018-12-04T03:26:27.902Z,4.26
2018-12-04T03:31:17.925Z,4.26
2018-12-04T03:36:07.439Z,4.30
2018-12-04T03:40:58.286Z,4.24
2018-12-04T03:45:42.592Z,4.29
2018-12-04T03:50:32.752Z,4.36
2018-12-04T03:55:19.814Z,4.36
2018-12-04T04:00:10.761Z,4.39
2018-12-04T04:04:55.812Z,4.44
2018-12-04T04:09:45.972Z,4.44
2018-12-04T04:14:35.627Z,4.49
2018-12-04T04:19:25.645Z,4.48
2018-12-04T04:24:13.307Z,4.47
2018-12-04T04:29:04.171Z,4.49
2018-12-04T04:33:53.892Z,4.52
2018-12-04T04:38:40.816Z,4.61
2018-12-04T04:43:31.353Z,4.61
2018-12-04T04:48:15.978Z,4.58
2018-12-04T04:53:00.612Z,4.64
2018-12-04T04:57:51.091Z,4.65
2018-12-04T05:02:35.972Z,4.61
2018-12-04T05:07:25.436Z,4.53
2018-12-04T05:12:13.451Z,4.67
2018-12-04T05:17:03.153Z,4.69
2018-12-04T05:21:51.917Z,4.68
2018-12-04T05:26:40.586Z,4.69
2018-12-04T05:31:28.782Z,4.69
2018-12-04T05:36:18.228Z,4.69
2018-12-04T05:41:08.010Z,4.73
2018-12-04T05:45:57.976Z,4.80
2018-12-04T05:50:45.508Z,4.89
2018-12-04T05:55:36.723Z,4.96
2018-12-04T06:00:21.708Z,4.98
2018-12-04T06:05:13.026Z,5.06
2018-12-04T06:09:57.428Z,5.09
2018-12-04T06:14:46.855Z,5.15
2018-12-04T06:19:31.015Z,5.19
2018-12-04T06:24:21.114Z,5.24
2018-12-04T06:29:08.705Z,5.35
2018-12-04T06:33:54.158Z,5.45
2018-12-04T06:38:46.162Z,5.48
2018-12-04T06:43:35.891Z,5.54
2018-12-04T06:48:26.522Z,5.54
2018-12-04T06:53:16.878Z,5.52
2018-12-04T06:58:06.635Z,5.53
2018-12-04T07:02:50.884Z,5.56
2018-12-04T07:07:41.900Z,5.65
2018-12-04T07:12:32.280Z,5.72
2018-12-04T07:17:22.227Z,5.80
2018-12-04T07:22:12.367Z,5.86
2018-12-04T07:27:02.349Z,5.92
2018-12-04T07:31:50.213Z,6.10
2018-12-04T07:36:35.302Z,6.25
2018-12-04T07:41:23.070Z,6.15
2018-12-04T07:46:13.523Z,6.03
2018-12-04T07:51:09.921Z,6.19
2018-12-04T07:56:00.539Z,6.10
2018-12-04T08:00:51.636Z,6.48
2018-12-04T08:05:41.815Z,6.60
2018-12-04T08:10:31.991Z,6.37
2018-12-04T08:15:21.871Z,6.59
2018-12-04T08:20:12.054Z,6.59
2018-12-04T08:24:59.851Z,6.61
2018-12-04T08:29:50.062Z,6.65
2018-12-04T08:34:41.351Z,6.72
2018-12-04T08:39:32.167Z,6.87
2018-12-04T08:44:22.602Z,6.91
2018-12-04T08:49:13.499Z,7.00
2018-12-04T08:54:02.901Z,7.05
2018-12-04T08:58:52.498Z,7.07
2018-12-04T09:03:37.553Z,7.12
2018-12-04T09:08:25.298Z,7.14
2018-12-04T09:13:15.211Z,7.09
2018-12-04T09:18:05.364Z,6.92
2018-12-04T09:22:55.251Z,6.89
2018-12-04T09:27:46.542Z,6.94
2018-12-04T09:32:36.204Z,7.21
2018-12-04T09:37:26.588Z,7.35
2018-12-04T09:47:01.104Z,7.33
2018-12-04T09:51:48.977Z,7.28
2018-12-04T09:56:38.567Z,7.32
2018-12-04T10:01:28.625Z,7.19
2018-12-04T10:06:17.936Z,7.25
2018-12-04T10:11:08.677Z,7.31
2018-12-04T10:15:58.267Z,7.41
2018-12-04T10:20:45.505Z,7.49
2018-12-04T10:25:37.221Z,7.57
2018-12-04T10:30:24.612Z,7.63
2018-12-04T10:35:14.390Z,7.71
2018-12-04T10:40:04.764Z,7.73
2018-12-04T10:49:40.345Z,7.76
2018-12-04T10:54:30.299Z,7.76
2018-12-04T10:59:20.792Z,7.46
2018-12-04T11:04:10.447Z,7.30
2018-12-04T11:09:00.640Z,7.22
2018-12-04T11:13:45.754Z,7.33
2018-12-04T11:18:37.227Z,7.28
2018-12-04T11:23:22.386Z,7.12
2018-12-04T11:28:12.215Z,7.41
2018-12-04T11:33:02.710Z,7.45
2018-12-04T11:37:53.646Z,7.48
2018-12-04T11:42:43.543Z,7.51
2018-12-04T11:57:03.701Z,7.56
2018-12-04T12:01:53.356Z,7.59
2018-12-04T12:06:38.084Z,7.61
2018-12-04T12:11:28.241Z,7.64
2018-12-04T12:16:17.757Z,7.61
2018-12-04T12:21:07.532Z,7.66
2018-12-04T12:25:57.053Z,7.68
2018-12-04T12:30:47.987Z,7.66
2018-12-04T12:35:38.493Z,7.69
2018-12-04T12:40:28.865Z,7.73
2018-12-04T12:45:13.107Z,7.74
2018-12-04T12:50:04.893Z,7.70
2018-12-04T12:54:54.509Z,7.76
2018-12-04T12:59:44.572Z,7.75
2018-12-04T13:04:34.238Z,7.72
2018-12-04T13:09:24.298Z,7.65
2018-12-04T13:14:11.893Z,7.60
2018-12-04T13:19:00.345Z,7.64
2018-12-04T13:23:49.958Z,7.63
2018-12-04T13:28:40.394Z,7.68
2018-12-04T13:33:30.518Z,7.63
2018-12-04T13:38:20.189Z,7.64
2018-12-04T13:43:10.655Z,7.60
2018-12-04T13:48:00.927Z,7.61
2018-12-04T13:52:50.623Z,7.58
2018-12-04T13:57:41.437Z,7.64
2018-12-04T14:02:31.603Z,7.62
2018-12-04T14:07:22.097Z,7.47
2018-12-04T14:12:11.565Z,7.35
2018-12-04T14:17:01.604Z,7.35
2018-12-04T14:21:46.420Z,7.52
2018-12-04T14:26:37.680Z,7.63
2018-12-04T14:31:28.492Z,7.70
2018-12-04T14:36:16.125Z,7.74
2018-12-04T14:41:06.183Z,7.76
2018-12-04T14:45:56.041Z,7.76
2018-12-04T14:50:46.104Z,7.72
2018-12-04T14:55:33.687Z,7.74
2018-12-04T15:00:26.245Z,7.75
2018-12-04T15:05:18.878Z,7.73
2018-12-04T15:10:09.429Z,7.75
2018-12-04T15:14:59.355Z,7.72
2018-12-04T15:19:49.266Z,7.60
2018-12-04T15:24:37.162Z,7.51
2018-12-04T15:29:27.576Z,7.54
2018-12-04T15:34:17.564Z,7.45
2018-12-04T15:39:07.939Z,7.55
2018-12-04T15:43:57.446Z,7.65
2018-12-04T15:48:47.821Z,7.62
2018-12-04T15:53:38.407Z,7.73
2018-12-04T15:58:26.441Z,7.34
2018-12-04T16:03:17.410Z,7.37
2018-12-04T16:08:19.064Z,7.53
2018-12-04T16:13:14.933Z,7.57
2018-12-04T16:18:06.506Z,7.59
2018-12-04T16:22:56.007Z,7.63
2018-12-04T16:27:46.410Z,7.65
2018-12-04T16:32:36.343Z,7.73
2018-12-04T16:37:26.164Z,7.78
2018-12-04T16:42:10.515Z,7.73
2018-12-04T16:47:00.410Z,7.72
2018-12-04T16:51:50.284Z,7.68
2018-12-04T16:56:40.470Z,7.67
2018-12-04T17:01:30.337Z,7.69
2018-12-04T17:06:20.691Z,7.73
2018-12-04T17:11:11.133Z,7.70
2018-12-04T17:15:59.896Z,7.83
2018-12-04T17:20:49.537Z,7.79
2018-12-04T17:25:39.535Z,7.77
2018-12-04T17:30:34.159Z,7.56
2018-12-04T17:35:25.111Z,7.70
2018-12-04T17:40:13.580Z,7.76
2018-12-04T17:45:04.955Z,7.66
2018-12-04T17:49:54.886Z,7.73
2018-12-04T17:54:44.853Z,7.84
2018-12-04T17:59:38.429Z,7.81
2018-12-04T18:04:29.410Z,7.75
2018-12-04T18:09:14.670Z,7.78
2018-12-04T18:14:05.508Z,7.80
2018-12-04T18:18:57.035Z,7.72
2018-12-04T18:23:48.207Z,7.65
2018-12-04T18:28:40.937Z,7.43
2018-12-04T18:33:30.704Z,7.24
2018-12-04T18:38:18.511Z,7.39
2018-12-04T18:43:08.751Z,7.43
2018-12-04T18:47:54.048Z,7.18
2018-12-04T18:52:45.364Z,7.47
2018-12-04T18:57:36.152Z,7.53
2018-12-04T19:02:27.480Z,7.68
2018-12-04T19:07:17.793Z,7.66
2018-12-04T19:12:10.265Z,7.63
2018-12-04T19:16:55.638Z,7.71
2018-12-04T19:21:45.973Z,7.69
2018-12-04T19:26:36.121Z,7.74
2018-12-04T19:31:25.854Z,7.41
2018-12-04T19:36:15.402Z,7.52
2018-12-04T19:41:03.094Z,7.53
2018-12-04T19:45:53.079Z,7.44
2018-12-04T19:50:43.142Z,7.54
2018-12-04T19:55:32.844Z,7.47
2018-12-04T20:00:24.118Z,7.45
2018-12-04T20:05:26.230Z,7.53
2018-12-04T20:10:16.228Z,7.52
2018-12-04T20:15:05.964Z,7.47
2018-12-04T20:19:55.968Z,7.46
2018-12-04T20:24:46.190Z,7.37
2018-12-04T20:29:37.092Z,7.46
2018-12-04T20:34:26.822Z,7.44
2018-12-04T20:39:16.442Z,7.46
2018-12-04T20:44:05.855Z,7.43
2018-12-04T20:48:55.938Z,7.53
2018-12-04T20:53:43.526Z,7.50
2018-12-04T20:58:33.237Z,7.52
2018-12-04T21:03:20.664Z,7.50
2018-12-04T21:08:11.838Z,7.56
2018-12-04T21:12:56.186Z,7.47
2018-12-04T21:22:31.285Z,7.11
2018-12-04T21:27:26.890Z,6.95
2018-12-04T21:32:22.893Z,7.30
2018-12-04T21:37:18.383Z,7.24
2018-12-04T21:42:13.922Z,7.27
2018-12-04T21:47:11.551Z,7.31
2018-12-04T21:52:02.564Z,7.19
2018-12-04T21:56:53.185Z,7.05
2018-12-04T22:01:37.893Z,6.91
2018-12-04T22:06:24.318Z,6.99
2018-12-04T22:11:13.909Z,7.01
2018-12-04T22:16:03.574Z,7.08
2018-12-04T22:20:48.844Z,6.97
2018-12-04T22:25:34.053Z,6.82
2018-12-04T22:30:25.098Z,6.78
2018-12-04T22:35:16.284Z,6.86
2018-12-04T22:40:05.097Z,6.96
2018-12-04T22:45:01.522Z,6.92
2018-12-04T22:49:52.491Z,6.96
2018-12-04T22:54:42.525Z,6.76
2018-12-04T22:59:32.484Z,6.70
2018-12-04T23:04:22.219Z,6.77
2018-12-04T23:09:12.105Z,6.69
2018-12-04T23:14:01.781Z,6.78
2018-12-04T23:18:51.919Z,6.63
2018-12-04T23:23:41.494Z,6.63
2018-12-04T23:28:31.219Z,6.86
2018-12-04T23:33:21.221Z,6.63
2018-12-04T23:38:11.640Z,6.41
2018-12-04T23:43:01.516Z,6.30
2018-12-04T23:47:51.467Z,6.29
2018-12-04T23:52:36.232Z,6.27
2018-12-04T23:57:25.943Z,6.54
